createdAt,value
2023-05-12T00:00:11.570Z,48.76
2023-05-12T00:00:43.136Z,49.01
2023-05-12T00:01:14.787Z,48.85
2023-05-12T00:01:46.354Z,48.64
2023-05-12T00:02:17.955Z,48.61
2023-05-12T00:02:49.638Z,48.70
2023-05-12T00:03:21.332Z,48.68
2023-05-12T00:03:53.285Z,48.42
2023-05-12T00:04:24.907Z,48.83
2023-05-12T00:04:56.647Z,48.76
2023-05-12T00:05:28.256Z,48.67
2023-05-12T00:06:00.685Z,48.54
2023-05-12T00:06:32.265Z,48.70
2023-05-12T00:07:03.840Z,48.55
2023-05-12T00:07:35.435Z,48.70
2023-05-12T00:08:07.036Z,48.59
2023-05-12T00:08:38.932Z,48.70
2023-05-12T00:09:10.505Z,48.59
2023-05-12T00:09:42.076Z,48.42
2023-05-12T00:10:13.679Z,48.62
2023-05-12T00:10:45.278Z,48.47
2023-05-12T00:11:16.830Z,48.50
2023-05-12T00:11:48.514Z,48.17
2023-05-12T00:12:20.133Z,48.61
2023-05-12T00:12:51.695Z,48.49
2023-05-12T00:13:23.481Z,48.54
2023-05-12T00:13:55.458Z,48.40
2023-05-12T00:14:27.128Z,48.48
2023-05-12T00:14:58.675Z,48.66
2023-05-12T00:15:30.355Z,48.29
2023-05-12T00:16:02.448Z,48.65
2023-05-12T00:16:34.113Z,48.43
2023-05-12T00:17:06.002Z,48.53
2023-05-12T00:17:37.624Z,48.37
2023-05-12T00:18:09.245Z,48.54
2023-05-12T00:18:40.837Z,48.29
2023-05-12T00:19:12.560Z,48.49
2023-05-12T00:19:44.180Z,48.54
2023-05-12T00:20:15.778Z,48.43
2023-05-12T00:20:47.325Z,48.25
2023-05-12T00:21:18.885Z,48.32
2023-05-12T00:21:50.455Z,48.57
2023-05-12T00:22:22.068Z,48.51
2023-05-12T00:22:53.630Z,48.38
2023-05-12T00:23:25.194Z,48.63
2023-05-12T00:23:56.818Z,48.40
2023-05-12T00:24:28.488Z,48.21
2023-05-12T00:25:00.271Z,48.21
2023-05-12T00:25:32.025Z,48.37
2023-05-12T00:26:03.682Z,48.42
2023-05-12T00:26:35.271Z,48.50
2023-05-12T00:27:07.006Z,48.46
2023-05-12T00:27:38.613Z,48.57
2023-05-12T00:28:10.491Z,48.16
2023-05-12T00:28:42.088Z,48.34
2023-05-12T00:29:13.625Z,48.25
2023-05-12T00:29:45.220Z,48.39
2023-05-12T00:30:17.042Z,48.46
2023-05-12T00:30:48.784Z,48.41
2023-05-12T00:31:20.524Z,48.35
2023-05-12T00:31:52.229Z,48.34
2023-05-12T00:32:23.835Z,48.44
2023-05-12T00:32:55.554Z,48.49
2023-05-12T00:33:27.211Z,48.00
2023-05-12T00:33:58.814Z,48.18
2023-05-12T00:34:30.422Z,48.08
2023-05-12T00:35:02.140Z,48.30
2023-05-12T00:35:33.869Z,48.12
2023-05-12T00:36:05.780Z,47.88
2023-05-12T00:36:37.356Z,48.02
2023-05-12T00:37:08.894Z,48.24
2023-05-12T00:37:40.468Z,48.28
2023-05-12T00:38:12.475Z,48.08
2023-05-12T00:38:44.044Z,48.12
2023-05-12T00:39:15.586Z,48.10
2023-05-12T00:39:47.180Z,48.33
2023-05-12T00:40:18.992Z,48.26
2023-05-12T00:40:50.718Z,47.89
2023-05-12T00:41:22.333Z,48.02
2023-05-12T00:41:59.429Z,47.95
2023-05-12T00:42:30.987Z,48.26
2023-05-12T00:43:02.722Z,48.10
2023-05-12T00:43:34.364Z,48.07
2023-05-12T00:44:05.934Z,48.10
2023-05-12T00:44:37.623Z,48.28
2023-05-12T00:45:09.448Z,48.09
2023-05-12T00:45:41.034Z,48.30
2023-05-12T00:46:12.732Z,48.44
2023-05-12T00:46:44.260Z,48.32
2023-05-12T00:47:15.831Z,48.14
2023-05-12T00:47:47.512Z,48.31
2023-05-12T00:48:19.143Z,47.98
2023-05-12T00:48:50.849Z,48.20
2023-05-12T00:49:22.445Z,48.29
2023-05-12T00:49:54.054Z,48.25
2023-05-12T00:50:25.653Z,48.34
2023-05-12T00:50:57.300Z,48.14
2023-05-12T00:51:28.875Z,48.28
2023-05-12T00:52:02.077Z,47.98
2023-05-12T00:52:33.693Z,48.00
2023-05-12T00:53:05.252Z,47.99
2023-05-12T00:53:48.394Z,47.94
2023-05-12T00:54:21.356Z,47.91
2023-05-12T00:54:52.920Z,48.02
2023-05-12T00:55:25.100Z,48.36
2023-05-12T00:55:56.694Z,48.05
2023-05-12T00:56:28.241Z,48.05
2023-05-12T00:56:59.844Z,47.91
2023-05-12T00:57:31.388Z,48.05
2023-05-12T00:58:03.056Z,48.20
2023-05-12T00:58:34.617Z,48.16
2023-05-12T00:59:06.581Z,48.26
2023-05-12T00:59:38.190Z,48.13
2023-05-12T01:00:10.025Z,47.86
2023-05-12T01:00:41.645Z,48.21
2023-05-12T01:01:13.313Z,47.89
2023-05-12T01:01:44.939Z,47.87
2023-05-12T01:02:16.480Z,48.34
2023-05-12T01:02:48.278Z,48.30
2023-05-12T01:03:20.234Z,48.09
2023-05-12T01:03:51.867Z,47.97
2023-05-12T01:04:23.460Z,48.11
2023-05-12T01:04:55.057Z,47.89
2023-05-12T01:05:27.897Z,48.13
2023-05-12T01:06:01.064Z,47.73
2023-05-12T01:06:39.068Z,47.82
2023-05-12T01:07:12.869Z,47.65
2023-05-12T01:07:44.431Z,47.68
2023-05-12T01:08:16.787Z,47.90
2023-05-12T01:08:48.356Z,47.96
2023-05-12T01:09:20.363Z,47.89
2023-05-12T01:09:55.228Z,48.30
2023-05-12T01:10:26.902Z,48.03
2023-05-12T01:10:58.502Z,48.06
2023-05-12T01:11:30.162Z,47.72
2023-05-12T01:12:01.748Z,47.99
2023-05-12T01:12:33.353Z,47.97
2023-05-12T01:13:04.967Z,47.98
2023-05-12T01:13:36.552Z,47.77
2023-05-12T01:14:08.178Z,47.69
2023-05-12T01:14:39.822Z,48.00
2023-05-12T01:15:11.394Z,48.05
2023-05-12T01:15:45.411Z,48.10
2023-05-12T01:16:16.980Z,47.70
2023-05-12T01:16:50.473Z,48.09
2023-05-12T01:17:23.401Z,47.83
2023-05-12T01:17:58.553Z,47.88
2023-05-12T01:18:30.328Z,47.97
2023-05-12T01:19:02.212Z,47.86
2023-05-12T01:19:45.977Z,48.13
2023-05-12T01:20:17.751Z,48.36
2023-05-12T01:20:49.447Z,47.87
2023-05-12T01:21:21.216Z,47.93
2023-05-12T01:21:52.830Z,47.94
2023-05-12T01:22:24.561Z,47.96
2023-05-12T01:22:56.089Z,48.11
2023-05-12T01:23:27.994Z,48.33
2023-05-12T01:24:00.812Z,48.02
2023-05-12T01:24:32.450Z,47.84
2023-05-12T01:25:05.252Z,48.04
2023-05-12T01:25:36.833Z,48.02
2023-05-12T01:26:08.687Z,47.73
2023-05-12T01:26:40.272Z,48.06
2023-05-12T01:27:12.148Z,48.04
2023-05-12T01:27:43.785Z,47.95
2023-05-12T01:28:15.338Z,48.05
2023-05-12T01:28:46.917Z,48.26
2023-05-12T01:29:18.450Z,47.90
2023-05-12T01:29:50.114Z,47.80
2023-05-12T01:30:21.941Z,47.88
2023-05-12T01:30:53.682Z,47.98
2023-05-12T01:31:25.354Z,47.91
2023-05-12T01:31:56.909Z,48.05
2023-05-12T01:32:28.512Z,48.10
2023-05-12T01:33:00.147Z,48.14
2023-05-12T01:33:32.513Z,48.00
2023-05-12T01:34:04.105Z,48.21
2023-05-12T01:34:35.870Z,47.96
2023-05-12T01:35:07.636Z,48.12
2023-05-12T01:35:39.283Z,47.95
2023-05-12T01:36:10.842Z,47.94
2023-05-12T01:36:42.396Z,47.73
2023-05-12T01:37:13.972Z,48.10
2023-05-12T01:37:45.572Z,47.81
2023-05-12T01:38:17.135Z,48.16
2023-05-12T01:38:48.716Z,47.88
2023-05-12T01:39:20.291Z,47.83
2023-05-12T01:39:51.945Z,48.02
2023-05-12T01:40:23.663Z,47.65
2023-05-12T01:40:55.276Z,47.63
2023-05-12T01:41:26.906Z,47.85
2023-05-12T01:41:58.456Z,47.77
2023-05-12T01:42:30.096Z,47.61
2023-05-12T01:43:01.790Z,47.82
2023-05-12T01:43:33.352Z,47.86
2023-05-12T01:44:05.174Z,47.84
2023-05-12T01:44:36.735Z,47.69
2023-05-12T01:45:08.607Z,47.59
2023-05-12T01:45:40.174Z,47.82
2023-05-12T01:46:11.774Z,47.75
2023-05-12T01:46:43.529Z,47.67
2023-05-12T01:47:15.216Z,47.79
2023-05-12T01:47:46.829Z,47.80
2023-05-12T01:48:18.462Z,47.79
2023-05-12T01:48:50.106Z,48.07
2023-05-12T01:49:21.675Z,47.60
2023-05-12T01:49:53.233Z,47.78
2023-05-12T01:50:24.848Z,47.72
2023-05-12T01:50:59.266Z,47.95
2023-05-12T01:51:30.857Z,47.95
2023-05-12T01:52:02.468Z,47.76
2023-05-12T01:52:34.101Z,47.61
2023-05-12T01:53:05.701Z,47.66
2023-05-12T01:53:37.311Z,47.80
2023-05-12T01:54:08.878Z,47.88
2023-05-12T01:54:40.494Z,47.38
2023-05-12T01:55:12.099Z,47.80
2023-05-12T01:55:43.682Z,47.67
2023-05-12T01:56:15.302Z,47.64
2023-05-12T01:56:46.919Z,47.76
2023-05-12T01:57:18.521Z,47.95
2023-05-12T01:57:50.172Z,47.76
2023-05-12T01:58:21.783Z,47.91
2023-05-12T01:58:53.417Z,47.71
2023-05-12T01:59:25.110Z,47.83
2023-05-12T01:59:56.730Z,47.62
2023-05-12T02:00:28.284Z,47.79
2023-05-12T02:00:59.948Z,47.75
2023-05-12T02:01:31.617Z,47.86
2023-05-12T02:02:03.317Z,47.60
2023-05-12T02:02:35.064Z,47.61
2023-05-12T02:03:06.838Z,47.86
2023-05-12T02:03:38.684Z,47.61
2023-05-12T02:04:10.361Z,47.50
2023-05-12T02:04:42.032Z,47.61
2023-05-12T02:05:13.644Z,47.68
2023-05-12T02:05:45.215Z,47.90
2023-05-12T02:06:16.813Z,47.55
2023-05-12T02:06:48.402Z,47.65
2023-05-12T02:07:19.997Z,47.62
2023-05-12T02:07:51.571Z,47.54
2023-05-12T02:08:23.251Z,47.43
2023-05-12T02:08:54.801Z,47.89
2023-05-12T02:09:26.361Z,47.60
2023-05-12T02:09:58.007Z,47.71
2023-05-12T02:10:29.596Z,47.41
2023-05-12T02:11:04.507Z,47.79
2023-05-12T02:11:36.095Z,47.67
2023-05-12T02:12:08.018Z,47.54
2023-05-12T02:12:39.573Z,47.73
2023-05-12T02:13:11.187Z,47.50
2023-05-12T02:13:42.894Z,47.41
2023-05-12T02:14:14.484Z,47.69
2023-05-12T02:14:46.089Z,47.74
2023-05-12T02:15:17.699Z,47.59
2023-05-12T02:15:49.238Z,47.90
2023-05-12T02:16:20.925Z,47.76
2023-05-12T02:16:52.684Z,47.60
2023-05-12T02:17:24.438Z,47.74
2023-05-12T02:17:56.125Z,47.82
2023-05-12T02:18:27.756Z,47.91
2023-05-12T02:18:59.464Z,47.90
2023-05-12T02:19:31.049Z,47.79
2023-05-12T02:20:02.678Z,47.58
2023-05-12T02:20:34.287Z,47.81
2023-05-12T02:21:05.903Z,47.60
2023-05-12T02:21:37.451Z,47.66
2023-05-12T02:22:09.060Z,47.67
2023-05-12T02:22:40.653Z,47.78
2023-05-12T02:23:12.209Z,47.72
2023-05-12T02:23:43.803Z,47.96
2023-05-12T02:24:15.432Z,47.66
2023-05-12T02:24:47.068Z,47.70
2023-05-12T02:25:18.680Z,47.66
2023-05-12T02:25:50.290Z,47.57
2023-05-12T02:26:21.952Z,47.84
2023-05-12T02:26:53.532Z,47.55
2023-05-12T02:27:25.145Z,47.70
2023-05-12T02:27:56.746Z,47.57
2023-05-12T02:28:28.303Z,47.77
2023-05-12T02:28:59.915Z,47.96
2023-05-12T02:29:31.570Z,47.56
2023-05-12T02:30:03.191Z,47.68
2023-05-12T02:30:34.745Z,47.85
2023-05-12T02:31:06.352Z,47.46
2023-05-12T02:31:38.041Z,47.64
2023-05-12T02:32:09.731Z,47.72
2023-05-12T02:32:41.483Z,47.67
2023-05-12T02:33:13.072Z,47.70
2023-05-12T02:33:44.686Z,47.66
2023-05-12T02:34:16.595Z,47.79
2023-05-12T02:34:48.380Z,47.54
2023-05-12T02:35:19.967Z,47.72
2023-05-12T02:35:51.534Z,47.76
2023-05-12T02:36:23.138Z,47.50
2023-05-12T02:36:54.742Z,47.66
2023-05-12T02:37:26.311Z,47.77
2023-05-12T02:37:57.874Z,47.84
2023-05-12T02:38:29.430Z,47.69
2023-05-12T02:39:01.034Z,47.64
2023-05-12T02:39:32.627Z,47.67
2023-05-12T02:40:04.647Z,47.49
2023-05-12T02:40:36.268Z,47.42
2023-05-12T02:41:08.096Z,47.44
2023-05-12T02:41:39.711Z,47.33
2023-05-12T02:42:11.327Z,47.56
2023-05-12T02:42:42.911Z,47.79
2023-05-12T02:43:14.514Z,47.83
2023-05-12T02:43:46.092Z,47.51
2023-05-12T02:44:17.677Z,47.67
2023-05-12T02:44:49.237Z,47.74
2023-05-12T02:45:20.890Z,47.73
2023-05-12T02:45:52.463Z,47.60
2023-05-12T02:46:24.210Z,47.48
2023-05-12T02:46:55.869Z,47.90
2023-05-12T02:47:27.490Z,47.63
2023-05-12T02:47:59.180Z,47.55
2023-05-12T02:48:30.773Z,47.51
2023-05-12T02:49:02.387Z,47.44
2023-05-12T02:49:33.972Z,47.81
2023-05-12T02:50:05.867Z,47.90
2023-05-12T02:50:37.477Z,47.83
2023-05-12T02:51:09.084Z,47.54
2023-05-12T02:51:40.690Z,47.58
2023-05-12T02:52:12.397Z,47.39
2023-05-12T02:52:43.973Z,47.76
2023-05-12T02:53:15.688Z,47.71
2023-05-12T02:53:47.213Z,47.42
2023-05-12T02:54:18.841Z,47.52
2023-05-12T02:54:50.418Z,47.58
2023-05-12T02:55:22.010Z,47.50
2023-05-12T02:55:53.611Z,47.52
2023-05-12T02:56:25.249Z,47.45
2023-05-12T02:56:56.852Z,47.32
2023-05-12T02:57:28.461Z,47.58
2023-05-12T02:58:00.056Z,47.45
2023-05-12T02:58:31.655Z,47.66
2023-05-12T02:59:03.240Z,47.58
2023-05-12T02:59:34.832Z,47.27
2023-05-12T03:00:06.937Z,47.52
2023-05-12T03:00:38.481Z,47.21
2023-05-12T03:01:11.468Z,47.57
2023-05-12T03:01:43.553Z,47.61
2023-05-12T03:02:15.189Z,47.44
2023-05-12T03:02:46.920Z,47.67
2023-05-12T03:03:18.740Z,47.32
2023-05-12T03:03:50.532Z,47.58
2023-05-12T03:04:22.210Z,47.50
2023-05-12T03:04:53.805Z,47.55
2023-05-12T03:05:25.424Z,47.50
2023-05-12T03:05:57.083Z,47.34
2023-05-12T03:06:29.572Z,47.30
2023-05-12T03:07:01.292Z,47.24
2023-05-12T03:07:32.887Z,47.32
2023-05-12T03:08:04.553Z,47.32
2023-05-12T03:08:36.215Z,47.60
2023-05-12T03:09:07.995Z,47.53
2023-05-12T03:09:39.638Z,47.54
2023-05-12T03:10:11.246Z,47.28
2023-05-12T03:10:42.835Z,47.48
2023-05-12T03:11:14.442Z,47.10
2023-05-12T03:11:46.070Z,47.32
2023-05-12T03:12:17.654Z,47.23
2023-05-12T03:12:49.219Z,47.21
2023-05-12T03:13:20.785Z,47.22
2023-05-12T03:13:52.377Z,47.15
2023-05-12T03:14:24.059Z,47.33
2023-05-12T03:14:55.736Z,47.20
2023-05-12T03:15:27.306Z,47.09
2023-05-12T03:15:58.923Z,47.38
2023-05-12T03:16:30.531Z,47.15
2023-05-12T03:17:02.127Z,47.05
2023-05-12T03:17:33.768Z,47.24
2023-05-12T03:18:05.521Z,47.09
2023-05-12T03:18:37.181Z,47.39
2023-05-12T03:19:08.892Z,46.95
2023-05-12T03:19:40.721Z,47.35
2023-05-12T03:20:12.375Z,47.21
2023-05-12T03:20:44.023Z,47.10
2023-05-12T03:21:15.700Z,47.14
2023-05-12T03:21:47.333Z,47.37
2023-05-12T03:22:18.914Z,47.24
2023-05-12T03:22:50.471Z,47.30
2023-05-12T03:23:22.050Z,47.27
2023-05-12T03:23:53.649Z,47.27
2023-05-12T03:24:25.276Z,47.12
2023-05-12T03:24:56.932Z,47.15
2023-05-12T03:25:28.544Z,47.39
2023-05-12T03:26:00.125Z,47.38
2023-05-12T03:26:31.652Z,47.35
2023-05-12T03:27:03.323Z,47.15
2023-05-12T03:27:34.895Z,47.02
2023-05-12T03:28:06.486Z,47.04
2023-05-12T03:28:38.032Z,47.14
2023-05-12T03:29:09.680Z,47.28
2023-05-12T03:29:41.294Z,47.20
2023-05-12T03:30:13.211Z,47.06
2023-05-12T03:30:44.865Z,47.34
2023-05-12T03:31:16.482Z,46.95
2023-05-12T03:31:48.166Z,47.12
2023-05-12T03:32:19.791Z,47.06
2023-05-12T03:32:51.475Z,47.27
2023-05-12T03:33:23.039Z,47.18
2023-05-12T03:33:54.632Z,47.06
2023-05-12T03:34:26.209Z,46.93
2023-05-12T03:34:57.818Z,47.25
2023-05-12T03:35:29.464Z,47.31
2023-05-12T03:36:01.070Z,47.03
2023-05-12T03:36:32.618Z,47.15
2023-05-12T03:37:04.294Z,47.14
2023-05-12T03:37:35.925Z,46.97
2023-05-12T03:38:07.519Z,47.21
2023-05-12T03:38:39.098Z,47.11
2023-05-12T03:39:10.732Z,46.81
2023-05-12T03:39:42.320Z,46.96
2023-05-12T03:40:13.992Z,46.99
2023-05-12T03:40:45.600Z,46.99
2023-05-12T03:41:17.177Z,47.00
2023-05-12T03:41:48.736Z,47.12
2023-05-12T03:42:20.315Z,46.96
2023-05-12T03:42:51.857Z,47.31
2023-05-12T03:43:23.425Z,47.19
2023-05-12T03:43:54.990Z,47.10
2023-05-12T03:44:26.550Z,46.93
2023-05-12T03:44:58.169Z,46.99
2023-05-12T03:45:29.742Z,46.98
2023-05-12T03:46:01.370Z,47.24
2023-05-12T03:46:33.041Z,47.27
2023-05-12T03:47:04.900Z,46.95
2023-05-12T03:47:36.724Z,46.81
2023-05-12T03:48:08.414Z,47.08
2023-05-12T03:48:39.990Z,46.74
2023-05-12T03:49:12.034Z,47.08
2023-05-12T03:49:43.572Z,46.77
2023-05-12T03:50:15.201Z,46.74
2023-05-12T03:50:46.811Z,47.05
2023-05-12T03:51:18.402Z,47.03
2023-05-12T03:51:50.038Z,46.92
2023-05-12T03:52:21.640Z,47.13
2023-05-12T03:52:53.220Z,47.24
2023-05-12T03:53:24.834Z,47.33
2023-05-12T03:53:56.369Z,46.87
2023-05-12T03:54:27.981Z,46.89
2023-05-12T03:54:59.629Z,47.13
2023-05-12T03:55:31.324Z,47.01
2023-05-12T03:56:05.900Z,46.85
2023-05-12T03:56:37.471Z,46.91
2023-05-12T03:57:09.101Z,47.09
2023-05-12T03:57:40.653Z,46.72
2023-05-12T03:58:12.218Z,46.80
2023-05-12T03:58:44.089Z,46.58
2023-05-12T03:59:15.684Z,46.82
2023-05-12T03:59:47.298Z,46.97
2023-05-12T04:00:19.139Z,46.89
2023-05-12T04:00:50.952Z,46.95
2023-05-12T04:01:22.514Z,46.90
2023-05-12T04:01:54.161Z,46.80
2023-05-12T04:02:26.082Z,46.61
2023-05-12T04:02:57.791Z,46.94
2023-05-12T04:03:29.529Z,46.54
2023-05-12T04:04:01.274Z,47.02
2023-05-12T04:04:32.899Z,46.83
2023-05-12T04:05:04.638Z,47.00
2023-05-12T04:05:36.222Z,46.83
2023-05-12T04:06:07.870Z,46.98
2023-05-12T04:06:39.450Z,47.02
2023-05-12T04:07:11.139Z,46.79
2023-05-12T04:07:42.722Z,47.07
2023-05-12T04:08:14.298Z,46.62
2023-05-12T04:08:45.883Z,46.74
2023-05-12T04:09:17.442Z,46.65
2023-05-12T04:09:48.988Z,46.73
2023-05-12T04:10:20.754Z,46.74
2023-05-12T04:10:54.589Z,47.01
2023-05-12T04:11:26.123Z,46.68
2023-05-12T04:11:57.756Z,46.79
2023-05-12T04:12:29.341Z,46.59
2023-05-12T04:13:01.221Z,46.78
2023-05-12T04:13:33.338Z,46.97
2023-05-12T04:14:04.937Z,47.03
2023-05-12T04:14:42.913Z,47.08
2023-05-12T04:15:15.080Z,46.74
2023-05-12T04:15:46.670Z,47.05
2023-05-12T04:16:18.338Z,46.69
2023-05-12T04:16:50.148Z,47.13
2023-05-12T04:17:21.750Z,46.80
2023-05-12T04:17:53.446Z,46.97
2023-05-12T04:18:25.587Z,46.78
2023-05-12T04:18:57.258Z,46.75
2023-05-12T04:19:28.904Z,47.10
2023-05-12T04:20:00.449Z,46.81
2023-05-12T04:20:31.990Z,46.85
2023-05-12T04:21:03.631Z,46.67
2023-05-12T04:21:35.383Z,46.66
2023-05-12T04:22:06.950Z,46.77
2023-05-12T04:22:38.537Z,47.18
2023-05-12T04:23:10.181Z,46.82
2023-05-12T04:23:41.745Z,46.80
2023-05-12T04:24:13.409Z,46.71
2023-05-12T04:24:44.924Z,47.06
2023-05-12T04:25:16.568Z,46.96
2023-05-12T04:25:48.203Z,46.63
2023-05-12T04:26:19.817Z,46.66
2023-05-12T04:26:51.395Z,46.87
2023-05-12T04:27:22.986Z,46.63
2023-05-12T04:27:54.593Z,46.90
2023-05-12T04:28:26.171Z,46.64
2023-05-12T04:28:57.713Z,46.66
2023-05-12T04:29:29.276Z,46.78
2023-05-12T04:30:00.872Z,46.79
2023-05-12T04:30:32.741Z,46.67
2023-05-12T04:31:04.336Z,46.76
2023-05-12T04:31:36.032Z,46.71
2023-05-12T04:32:07.973Z,46.82
2023-05-12T04:32:39.905Z,46.63
2023-05-12T04:33:11.781Z,47.08
2023-05-12T04:33:48.221Z,47.07
2023-05-12T04:34:20.099Z,46.90
2023-05-12T04:34:51.766Z,46.66
2023-05-12T04:35:23.368Z,46.78
2023-05-12T04:35:57.750Z,46.78
2023-05-12T04:36:29.301Z,46.91
2023-05-12T04:37:00.958Z,46.98
2023-05-12T04:37:32.575Z,46.96
2023-05-12T04:38:04.170Z,46.95
2023-05-12T04:38:35.732Z,46.82
2023-05-12T04:39:07.289Z,46.81
2023-05-12T04:39:39.007Z,46.87
2023-05-12T04:40:10.632Z,47.04
2023-05-12T04:40:42.276Z,47.03
2023-05-12T04:41:14.056Z,47.00
2023-05-12T04:41:45.668Z,47.00
2023-05-12T04:42:17.315Z,46.99
2023-05-12T04:42:48.876Z,46.85
2023-05-12T04:44:29.391Z,46.77
2023-05-12T04:45:00.981Z,47.04
2023-05-12T04:45:32.594Z,46.85
2023-05-12T04:46:04.269Z,46.69
2023-05-12T04:46:36.034Z,47.10
2023-05-12T04:47:07.690Z,46.75
2023-05-12T04:47:39.285Z,46.81
2023-05-12T04:48:10.815Z,46.93
2023-05-12T04:48:42.360Z,46.87
2023-05-12T04:49:13.948Z,46.83
2023-05-12T04:49:45.578Z,46.67
2023-05-12T04:50:17.293Z,46.70
2023-05-12T04:50:49.495Z,46.95
2023-05-12T04:51:21.066Z,46.89
2023-05-12T04:51:52.663Z,47.09
2023-05-12T04:52:24.881Z,46.90
2023-05-12T04:52:56.562Z,46.80
2023-05-12T04:53:28.214Z,46.69
2023-05-12T04:53:59.757Z,46.55
2023-05-12T04:54:31.697Z,46.78
2023-05-12T04:55:03.326Z,46.97
2023-05-12T04:55:34.955Z,46.62
2023-05-12T04:56:06.619Z,46.98
2023-05-12T04:56:38.238Z,46.93
2023-05-12T04:57:09.787Z,46.75
2023-05-12T04:57:41.533Z,46.45
2023-05-12T04:58:13.329Z,46.59
2023-05-12T04:58:45.118Z,46.53
2023-05-12T04:59:16.735Z,46.71
2023-05-12T04:59:48.335Z,47.00
2023-05-12T05:00:20.054Z,46.57
2023-05-12T05:00:51.652Z,46.65
2023-05-12T05:01:23.224Z,46.77
2023-05-12T05:01:54.956Z,46.90
2023-05-12T05:02:26.629Z,46.82
2023-05-12T05:02:58.360Z,46.89
2023-05-12T05:03:30.221Z,47.02
2023-05-12T05:04:01.944Z,46.74
2023-05-12T05:04:33.611Z,46.96
2023-05-12T05:05:05.377Z,46.51
2023-05-12T05:05:36.951Z,46.87
2023-05-12T05:06:08.491Z,46.72
2023-05-12T05:06:40.090Z,46.78
2023-05-12T05:07:11.683Z,46.65
2023-05-12T05:07:43.268Z,46.63
2023-05-12T05:08:14.851Z,46.50
2023-05-12T05:08:46.449Z,46.87
2023-05-12T05:09:18.040Z,46.72
2023-05-12T05:09:49.557Z,46.70
2023-05-12T05:10:21.098Z,46.35
2023-05-12T05:10:52.674Z,46.62
2023-05-12T05:11:24.250Z,46.34
2023-05-12T05:11:55.808Z,46.54
2023-05-12T05:12:27.413Z,46.75
2023-05-12T05:12:59.253Z,46.49
2023-05-12T05:13:30.893Z,46.78
2023-05-12T05:14:02.454Z,46.64
2023-05-12T05:14:34.104Z,46.56
2023-05-12T05:15:05.927Z,46.53
2023-05-12T05:15:37.524Z,46.77
2023-05-12T05:16:09.334Z,46.73
2023-05-12T05:16:40.977Z,46.52
2023-05-12T05:17:12.537Z,46.53
2023-05-12T05:17:44.213Z,46.58
2023-05-12T05:18:15.978Z,46.75
2023-05-12T05:18:47.686Z,46.59
2023-05-12T05:19:24.776Z,46.56
2023-05-12T05:20:11.383Z,46.66
2023-05-12T05:20:45.426Z,46.43
2023-05-12T05:21:19.149Z,46.42
2023-05-12T05:21:50.698Z,46.82
2023-05-12T05:22:22.302Z,46.77
2023-05-12T05:22:53.958Z,46.48
2023-05-12T05:23:25.663Z,46.76
2023-05-12T05:23:57.233Z,46.47
2023-05-12T05:24:28.772Z,46.73
2023-05-12T05:25:00.325Z,46.54
2023-05-12T05:25:31.894Z,46.54
2023-05-12T05:26:03.534Z,46.78
2023-05-12T05:26:35.186Z,46.75
2023-05-12T05:27:06.751Z,46.66
2023-05-12T05:27:38.334Z,46.55
2023-05-12T05:28:09.932Z,46.54
2023-05-12T05:28:41.515Z,46.60
2023-05-12T05:29:13.147Z,46.48
2023-05-12T05:29:44.712Z,46.58
2023-05-12T05:30:16.512Z,46.58
2023-05-12T05:30:48.130Z,46.36
2023-05-12T05:31:19.691Z,46.75
2023-05-12T05:31:51.431Z,46.68
2023-05-12T05:32:23.199Z,46.92
2023-05-12T05:32:54.867Z,46.96
2023-05-12T05:33:26.444Z,46.45
2023-05-12T05:33:58.192Z,46.57
2023-05-12T05:34:30.023Z,46.89
2023-05-12T05:35:01.598Z,46.72
2023-05-12T05:35:33.210Z,46.36
2023-05-12T05:36:04.964Z,46.57
2023-05-12T05:36:36.557Z,46.51
2023-05-12T05:37:08.167Z,46.56
2023-05-12T05:37:39.719Z,46.85
2023-05-12T05:38:11.314Z,46.69
2023-05-12T05:38:42.867Z,46.69
2023-05-12T05:39:14.488Z,46.97
2023-05-12T05:39:46.047Z,46.66
2023-05-12T05:40:17.642Z,46.71
2023-05-12T05:40:53.736Z,46.67
2023-05-12T05:41:26.170Z,46.69
2023-05-12T05:41:57.836Z,46.68
2023-05-12T05:42:29.383Z,46.70
2023-05-12T05:43:00.966Z,47.09
2023-05-12T05:43:32.541Z,46.74
2023-05-12T05:44:04.207Z,46.87
2023-05-12T05:44:35.864Z,46.85
2023-05-12T05:45:07.802Z,46.91
2023-05-12T05:45:39.447Z,47.08
2023-05-12T05:46:11.085Z,46.91
2023-05-12T05:46:42.734Z,46.69
2023-05-12T05:47:14.414Z,46.58
2023-05-12T05:47:46.148Z,46.86
2023-05-12T05:48:17.857Z,46.70
2023-05-12T05:48:49.552Z,46.65
2023-05-12T05:49:21.158Z,46.77
2023-05-12T05:49:52.738Z,46.87
2023-05-12T05:50:24.288Z,46.89
2023-05-12T05:50:55.845Z,46.87
2023-05-12T05:51:27.426Z,46.79
2023-05-12T05:51:59.029Z,46.92
2023-05-12T05:52:30.659Z,46.62
2023-05-12T05:53:02.195Z,46.74
2023-05-12T05:53:33.738Z,46.58
2023-05-12T05:54:05.471Z,46.40
2023-05-12T05:54:37.326Z,46.72
2023-05-12T05:55:08.947Z,46.76
2023-05-12T05:55:40.540Z,46.58
2023-05-12T05:56:12.326Z,46.59
2023-05-12T05:56:44.105Z,46.87
2023-05-12T05:57:15.738Z,46.53
2023-05-12T05:57:47.387Z,46.76
2023-05-12T05:58:18.917Z,46.42
2023-05-12T05:58:50.501Z,46.69
2023-05-12T05:59:22.037Z,46.48
2023-05-12T05:59:53.788Z,46.27
2023-05-12T06:00:25.368Z,46.44
2023-05-12T06:00:56.957Z,46.65
2023-05-12T06:01:28.817Z,46.50
2023-05-12T06:02:00.492Z,46.66
2023-05-12T06:02:32.257Z,46.60
2023-05-12T06:03:04.100Z,46.79
2023-05-12T06:03:35.749Z,46.60
2023-05-12T06:04:07.361Z,46.77
2023-05-12T06:04:39.144Z,46.53
2023-05-12T06:05:10.779Z,46.57
2023-05-12T06:05:42.445Z,46.54
2023-05-12T06:06:14.087Z,46.40
2023-05-12T06:06:45.679Z,46.36
2023-05-12T06:07:17.352Z,46.56
2023-05-12T06:07:48.990Z,46.54
2023-05-12T06:08:20.547Z,46.81
2023-05-12T06:08:52.142Z,46.51
2023-05-12T06:09:23.763Z,46.50
2023-05-12T06:09:55.327Z,46.38
2023-05-12T06:10:27.001Z,46.74
2023-05-12T06:10:58.576Z,46.41
2023-05-12T06:11:30.141Z,46.50
2023-05-12T06:12:01.735Z,46.31
2023-05-12T06:12:33.337Z,46.58
2023-05-12T06:13:04.947Z,46.77
2023-05-12T06:13:36.518Z,46.32
2023-05-12T06:14:08.175Z,46.56
2023-05-12T06:14:39.988Z,46.57
2023-05-12T06:15:11.603Z,46.66
2023-05-12T06:15:43.258Z,46.37
2023-05-12T06:16:14.856Z,46.43
2023-05-12T06:16:46.521Z,46.39
2023-05-12T06:17:18.159Z,46.51
2023-05-12T06:17:49.769Z,46.51
2023-05-12T06:18:22.393Z,46.57
2023-05-12T06:18:54.073Z,46.41
2023-05-12T06:19:25.771Z,46.35
2023-05-12T06:19:57.383Z,46.39
2023-05-12T06:20:29.043Z,46.25
2023-05-12T06:21:00.606Z,46.59
2023-05-12T06:21:32.189Z,46.34
2023-05-12T06:22:03.797Z,46.21
2023-05-12T06:22:35.333Z,46.64
2023-05-12T06:23:06.923Z,46.44
2023-05-12T06:23:38.517Z,46.34
2023-05-12T06:24:10.105Z,46.44
2023-05-12T06:24:41.729Z,46.51
2023-05-12T06:25:13.272Z,46.43
2023-05-12T06:25:44.906Z,46.63
2023-05-12T06:26:16.454Z,46.58
2023-05-12T06:26:48.073Z,46.71
2023-05-12T06:27:19.627Z,46.50
2023-05-12T06:27:51.515Z,46.83
2023-05-12T06:28:23.059Z,46.44
2023-05-12T06:28:54.644Z,46.55
2023-05-12T06:29:26.113Z,46.61
2023-05-12T06:29:57.703Z,46.60
2023-05-12T06:30:29.321Z,46.57
2023-05-12T06:31:00.857Z,46.38
2023-05-12T06:31:32.467Z,46.54
2023-05-12T06:32:04.149Z,46.30
2023-05-12T06:32:35.830Z,46.46
2023-05-12T06:33:07.507Z,46.37
2023-05-12T06:33:39.146Z,46.31
2023-05-12T06:34:10.770Z,46.42
2023-05-12T06:34:42.515Z,46.53
2023-05-12T06:35:14.074Z,46.53
2023-05-12T06:35:45.608Z,46.09
2023-05-12T06:36:17.216Z,46.36
2023-05-12T06:36:48.748Z,46.51
2023-05-12T06:37:20.333Z,46.32
2023-05-12T06:37:51.926Z,46.36
2023-05-12T06:38:23.548Z,46.50
2023-05-12T06:38:55.144Z,46.50
2023-05-12T06:39:26.704Z,46.35
2023-05-12T06:39:58.282Z,46.24
2023-05-12T06:40:29.943Z,46.17
2023-05-12T06:41:01.528Z,46.43
2023-05-12T06:41:33.082Z,46.52
2023-05-12T06:42:04.769Z,46.48
2023-05-12T06:42:36.389Z,46.44
2023-05-12T06:43:07.966Z,46.39
2023-05-12T06:43:39.644Z,46.32
2023-05-12T06:44:11.189Z,46.13
2023-05-12T06:44:42.843Z,46.25
2023-05-12T06:45:14.485Z,46.25
2023-05-12T06:45:46.107Z,46.21
2023-05-12T06:46:18.048Z,46.43
2023-05-12T06:46:49.739Z,46.40
2023-05-12T06:47:21.331Z,46.09
2023-05-12T06:47:53.043Z,46.64
2023-05-12T06:48:24.631Z,46.21
2023-05-12T06:48:56.207Z,46.48
2023-05-12T06:49:27.821Z,46.23
2023-05-12T06:49:59.411Z,46.19
2023-05-12T06:50:30.966Z,46.18